createdAt,value
2022-08-28T00:00:31.338Z,10.60
2022-08-28T00:02:59.198Z,13.20
2022-08-28T00:05:28.104Z,13.87
2022-08-28T00:07:55.115Z,12.87
2022-08-28T00:10:24.119Z,16.60
2022-08-28T00:12:52.893Z,12.97
2022-08-28T00:15:23.932Z,11.40
2022-08-28T00:17:50.847Z,10.40
2022-08-28T00:20:19.903Z,12.20
2022-08-28T00:22:48.525Z,14.23
2022-08-28T00:25:18.568Z,12.07
2022-08-28T00:28:04.928Z,11.97
2022-08-28T00:30:48.169Z,11.80
2022-08-28T00:33:37.527Z,13.10
2022-08-28T00:36:04.906Z,15.33
2022-08-28T00:38:32.973Z,14.50
2022-08-28T00:41:03.999Z,16.30
2022-08-28T00:43:38.432Z,16.70
2022-08-28T00:46:10.894Z,13.80
2022-08-28T00:48:38.562Z,16.90
2022-08-28T00:51:25.413Z,15.93
2022-08-28T00:53:58.427Z,15.80
2022-08-28T00:56:27.654Z,17.80
2022-08-28T00:58:56.810Z,17.53
2022-08-28T01:01:24.192Z,18.70
2022-08-28T01:03:51.072Z,20.93
2022-08-28T01:06:20.615Z,14.63
2022-08-28T01:08:50.615Z,17.20
2022-08-28T01:11:19.536Z,13.80
2022-08-28T01:13:48.590Z,16.40
2022-08-28T01:16:19.299Z,18.83
2022-08-28T01:18:47.960Z,16.83
2022-08-28T01:21:29.394Z,17.17
2022-08-28T01:24:02.366Z,16.50
2022-08-28T01:26:30.045Z,21.83
2022-08-28T01:28:58.572Z,24.30
2022-08-28T01:31:27.266Z,25.40
2022-08-28T01:33:54.678Z,23.00
2022-08-28T01:36:21.680Z,20.30
2022-08-28T01:38:52.948Z,9.43
2022-08-28T01:41:20.773Z,18.47
2022-08-28T01:43:47.629Z,20.97
2022-08-28T01:46:14.892Z,19.00
2022-08-28T01:48:43.780Z,17.53
2022-08-28T01:51:11.992Z,20.40
2022-08-28T01:53:39.609Z,14.83
2022-08-28T01:56:11.752Z,19.30
2022-08-28T01:58:39.946Z,18.63
2022-08-28T02:01:17.019Z,20.73
2022-08-28T02:03:44.135Z,20.50
2022-08-28T02:06:12.111Z,20.67
2022-08-28T02:08:38.904Z,22.80
2022-08-28T02:11:07.384Z,22.57
2022-08-28T02:13:36.124Z,22.57
2022-08-28T02:16:06.020Z,22.63
2022-08-28T02:18:33.004Z,22.47
2022-08-28T02:20:59.825Z,21.40
2022-08-28T02:23:26.774Z,25.20
2022-08-28T02:25:53.555Z,29.90
2022-08-28T02:28:20.469Z,20.30
2022-08-28T02:30:47.397Z,22.77
2022-08-28T02:33:14.843Z,19.47
2022-08-28T02:35:42.808Z,22.03
2022-08-28T02:38:10.422Z,26.33
2022-08-28T02:40:39.912Z,22.33
2022-08-28T02:43:07.075Z,23.20
2022-08-28T02:45:35.014Z,21.57
2022-08-28T02:48:02.644Z,21.80
2022-08-28T02:50:31.095Z,22.87
2022-08-28T02:52:58.261Z,18.53
2022-08-28T02:55:25.343Z,19.77
2022-08-28T02:57:52.804Z,15.93
2022-08-28T03:00:22.918Z,24.10
2022-08-28T03:02:50.900Z,19.20
2022-08-28T03:05:21.832Z,20.40
2022-08-28T03:07:49.768Z,18.97
2022-08-28T03:10:17.023Z,28.73
2022-08-28T03:12:43.821Z,21.40
2022-08-28T03:15:11.048Z,19.30
2022-08-28T03:17:38.129Z,25.87
2022-08-28T03:20:07.667Z,22.13
2022-08-28T03:22:53.132Z,20.53
2022-08-28T03:25:20.131Z,22.83
2022-08-28T03:27:46.900Z,21.20
2022-08-28T03:30:14.431Z,17.30
2022-08-28T03:32:41.436Z,19.70
2022-08-28T03:35:08.501Z,22.23
2022-08-28T03:37:35.784Z,17.70
2022-08-28T03:40:03.608Z,21.73
2022-08-28T03:42:31.094Z,19.60
2022-08-28T03:44:59.505Z,18.30
2022-08-28T03:47:28.293Z,22.00
2022-08-28T03:49:57.205Z,22.03
2022-08-28T03:52:24.277Z,22.20
2022-08-28T03:54:51.181Z,22.40
2022-08-28T03:57:22.206Z,24.60
2022-08-28T03:59:51.067Z,21.27
2022-08-28T04:02:20.432Z,24.77
2022-08-28T04:04:48.837Z,27.77
2022-08-28T04:07:16.488Z,31.20
2022-08-28T04:09:43.393Z,22.30
2022-08-28T04:12:10.724Z,23.77
2022-08-28T04:14:38.008Z,24.87
2022-08-28T04:17:06.050Z,24.13
2022-08-28T04:19:33.599Z,22.00
2022-08-28T04:22:00.572Z,23.90
2022-08-28T04:24:27.346Z,21.63
2022-08-28T04:26:54.368Z,19.83
2022-08-28T04:29:22.570Z,28.77
2022-08-28T04:31:49.827Z,23.07
2022-08-28T04:34:16.768Z,21.63
2022-08-28T04:36:43.795Z,21.40
2022-08-28T04:39:11.137Z,28.23
2022-08-28T04:41:38.823Z,23.10
2022-08-28T04:44:06.315Z,30.83
2022-08-28T04:46:33.200Z,22.40
2022-08-28T04:49:00.619Z,23.00
2022-08-28T04:51:28.354Z,31.40
2022-08-28T04:53:55.201Z,26.90
2022-08-28T04:56:21.988Z,29.47
2022-08-28T04:58:48.840Z,27.40
2022-08-28T05:01:19.036Z,28.80
2022-08-28T05:03:47.928Z,25.80
2022-08-28T05:06:16.240Z,24.70
2022-08-28T05:08:43.563Z,26.10
2022-08-28T05:11:33.347Z,28.10
2022-08-28T05:14:07.029Z,26.40
2022-08-28T05:16:40.140Z,22.07
2022-08-28T05:19:06.963Z,24.17
2022-08-28T05:21:33.761Z,26.20
2022-08-28T05:24:00.620Z,30.97
2022-08-28T05:26:29.698Z,29.57
2022-08-28T05:28:58.373Z,23.23
2022-08-28T05:31:26.997Z,27.70
2022-08-28T05:33:54.145Z,26.17
2022-08-28T05:36:25.858Z,26.63
2022-08-28T05:38:59.930Z,25.63
2022-08-28T05:41:30.158Z,24.90
2022-08-28T05:44:03.526Z,30.87
2022-08-28T05:46:30.991Z,29.63
2022-08-28T05:49:00.153Z,24.60
2022-08-28T05:51:28.095Z,23.60
2022-08-28T05:53:57.591Z,27.50
2022-08-28T05:56:29.784Z,25.97
2022-08-28T05:59:00.803Z,31.20
2022-08-28T06:01:33.414Z,25.67
2022-08-28T06:04:01.314Z,27.13
2022-08-28T06:06:30.335Z,27.73
2022-08-28T06:08:59.717Z,29.97
2022-08-28T06:11:31.223Z,33.80
2022-08-28T06:14:03.198Z,35.00
2022-08-28T06:16:31.865Z,27.40
2022-08-28T06:18:59.230Z,27.80
2022-08-28T06:21:26.211Z,31.17
2022-08-28T06:23:53.257Z,29.03
2022-08-28T06:26:20.095Z,28.73
2022-08-28T06:28:46.836Z,25.63
2022-08-28T06:31:24.723Z,30.43
2022-08-28T06:33:57.312Z,27.10
2022-08-28T06:36:27.497Z,26.83
2022-08-28T06:38:58.021Z,30.57
2022-08-28T06:41:26.526Z,34.03
2022-08-28T06:43:54.099Z,29.23
2022-08-28T06:46:21.919Z,34.60
2022-08-28T06:48:48.892Z,24.87
2022-08-28T06:51:15.667Z,25.80
2022-08-28T06:53:45.629Z,27.73
2022-08-28T06:56:25.389Z,31.53
2022-08-28T06:58:54.759Z,30.27
2022-08-28T07:01:29.565Z,29.87
2022-08-28T07:04:03.998Z,26.23
2022-08-28T07:06:38.418Z,29.00
2022-08-28T07:09:07.694Z,28.13
2022-08-28T07:11:35.668Z,22.23
2022-08-28T07:14:03.044Z,24.93
2022-08-28T07:16:34.198Z,23.67
2022-08-28T07:19:04.722Z,25.80
2022-08-28T07:21:38.715Z,25.83
2022-08-28T07:24:07.318Z,22.93
2022-08-28T07:26:35.708Z,23.10
2022-08-28T07:29:10.035Z,22.10
2022-08-28T07:31:43.565Z,25.97
2022-08-28T07:34:11.597Z,24.63
2022-08-28T07:36:39.681Z,22.07
2022-08-28T07:39:07.933Z,23.00
2022-08-28T07:41:39.155Z,23.00
2022-08-28T07:44:26.450Z,22.80
2022-08-28T07:46:58.069Z,17.60
2022-08-28T07:49:25.569Z,19.13
2022-08-28T07:51:54.238Z,25.30
2022-08-28T07:54:22.187Z,19.87
2022-08-28T07:56:49.384Z,18.93
2022-08-28T07:59:19.202Z,21.80
2022-08-28T08:01:48.416Z,20.30
2022-08-28T08:04:16.317Z,18.13
2022-08-28T08:06:44.437Z,21.70
2022-08-28T08:09:14.984Z,19.17
2022-08-28T08:11:42.706Z,17.57
2022-08-28T08:14:10.105Z,15.77
2022-08-28T08:16:40.631Z,20.33
2022-08-28T08:19:10.194Z,19.43
2022-08-28T08:21:38.065Z,18.80
2022-08-28T08:24:05.524Z,18.67
2022-08-28T08:26:33.152Z,14.03
2022-08-28T08:29:00.729Z,14.80
2022-08-28T08:31:30.247Z,17.43
2022-08-28T08:34:01.460Z,12.97
2022-08-28T08:36:29.490Z,15.73
2022-08-28T08:38:59.584Z,14.17
2022-08-28T08:41:30.277Z,13.00
2022-08-28T08:44:06.986Z,12.00
2022-08-28T08:46:45.855Z,12.50
2022-08-28T08:49:19.688Z,12.47
2022-08-28T08:52:16.297Z,12.33
2022-08-28T08:54:46.977Z,11.67
2022-08-28T08:57:15.524Z,13.47
2022-08-28T08:59:42.413Z,17.10
2022-08-28T09:02:22.212Z,10.93
2022-08-28T09:05:05.256Z,12.77
2022-08-28T09:07:41.101Z,14.87
2022-08-28T09:10:15.581Z,11.40
2022-08-28T09:13:05.302Z,10.60
2022-08-28T09:15:42.647Z,10.10
2022-08-28T09:18:26.207Z,16.03
2022-08-28T09:20:55.967Z,10.03
2022-08-28T09:23:24.826Z,18.00
2022-08-28T09:25:56.673Z,9.67
2022-08-28T09:28:38.999Z,8.30
2022-08-28T09:31:13.468Z,12.67
2022-08-28T09:33:45.218Z,12.87
2022-08-28T09:36:24.351Z,13.03
2022-08-28T09:39:12.805Z,12.17
2022-08-28T09:42:07.315Z,11.23
2022-08-28T09:44:46.141Z,9.90
2022-08-28T09:47:46.492Z,12.50
2022-08-28T09:50:34.112Z,9.30
2022-08-28T09:53:10.013Z,9.83
2022-08-28T09:55:49.277Z,7.90
2022-08-28T09:58:18.628Z,7.13
2022-08-28T10:00:57.624Z,8.33
2022-08-28T10:03:36.158Z,11.70
2022-08-28T10:06:08.056Z,7.57
2022-08-28T10:09:05.320Z,11.10
2022-08-28T10:11:44.308Z,10.03
2022-08-28T10:14:35.347Z,8.00
2022-08-28T10:17:04.837Z,7.30
2022-08-28T10:20:09.488Z,6.80
2022-08-28T10:22:51.375Z,8.60
2022-08-28T10:25:35.798Z,8.67
2022-08-28T10:28:31.633Z,8.37
2022-08-28T10:31:31.632Z,8.23
2022-08-28T10:34:28.713Z,8.77
2022-08-28T10:37:31.833Z,6.90
2022-08-28T10:40:04.527Z,6.90
2022-08-28T10:42:35.965Z,9.73
2022-08-28T10:45:19.893Z,7.40
2022-08-28T10:47:51.861Z,7.13
2022-08-28T10:50:33.796Z,9.23
2022-08-28T10:53:05.544Z,6.90
2022-08-28T10:55:48.837Z,7.60
2022-08-28T10:58:23.843Z,7.20
2022-08-28T11:00:55.319Z,9.07
2022-08-28T11:03:34.508Z,8.63
2022-08-28T11:06:36.260Z,7.80
2022-08-28T11:09:25.096Z,10.50
2022-08-28T11:12:05.639Z,6.90
2022-08-28T11:14:47.562Z,8.67
2022-08-28T11:17:30.449Z,7.37
2022-08-28T11:20:06.304Z,6.40
2022-08-28T11:23:07.692Z,7.57
2022-08-28T11:25:41.773Z,9.67
2022-08-28T11:28:17.361Z,7.53
2022-08-28T11:30:47.301Z,6.10
2022-08-28T11:33:39.082Z,8.20
2022-08-28T11:36:19.616Z,7.13
2022-08-28T11:38:46.858Z,6.10
2022-08-28T11:41:30.351Z,11.03
2022-08-28T11:44:09.401Z,5.67
2022-08-28T11:46:47.877Z,7.50
2022-08-28T11:49:24.536Z,8.00
2022-08-28T11:52:19.012Z,11.13
2022-08-28T11:55:09.825Z,6.13
2022-08-28T12:00:38.295Z,7.67
2022-08-28T12:03:24.264Z,6.00
2022-08-28T12:05:54.800Z,6.33
2022-08-28T12:09:01.781Z,7.73
2022-08-28T12:11:40.526Z,6.73
2022-08-28T12:14:30.020Z,6.20
2022-08-28T12:16:59.482Z,7.23
2022-08-28T12:19:55.513Z,5.00
2022-08-28T12:22:26.565Z,8.80
2022-08-28T12:24:59.510Z,8.63
2022-08-28T12:27:26.936Z,6.40
2022-08-28T12:29:59.980Z,8.60
2022-08-28T12:32:38.068Z,8.47
2022-08-28T12:35:17.067Z,8.20
2022-08-28T12:38:01.373Z,8.10
2022-08-28T12:40:50.187Z,5.90
2022-08-28T12:43:45.659Z,6.53
2022-08-28T12:46:26.872Z,5.83
2022-08-28T12:49:02.283Z,7.57
2022-08-28T12:51:32.033Z,10.90
2022-08-28T12:54:02.101Z,8.37
2022-08-28T12:56:34.042Z,7.47
2022-08-28T12:59:32.372Z,9.87
2022-08-28T13:02:27.433Z,6.13
2022-08-28T13:05:02.867Z,6.90
2022-08-28T13:07:32.820Z,6.90
2022-08-28T13:10:22.551Z,7.13
2022-08-28T13:13:06.451Z,7.40
2022-08-28T13:15:46.774Z,5.53
2022-08-28T13:19:10.908Z,7.27
2022-08-28T13:22:00.543Z,4.90
2022-08-28T13:24:27.471Z,5.03
2022-08-28T13:27:16.795Z,7.87
2022-08-28T13:29:55.672Z,5.27
2022-08-28T13:32:27.410Z,8.03
2022-08-28T13:35:06.366Z,7.37
2022-08-28T13:37:46.850Z,7.93
2022-08-28T13:40:45.818Z,6.30
2022-08-28T13:43:12.507Z,5.77
2022-08-28T13:45:43.940Z,6.07
2022-08-28T13:48:13.902Z,7.30
2022-08-28T13:50:46.565Z,5.67
2022-08-28T13:53:15.034Z,5.70
2022-08-28T13:55:42.039Z,5.97
2022-08-28T13:58:08.875Z,7.33
2022-08-28T14:00:41.103Z,4.93
2022-08-28T14:03:26.429Z,5.20
2022-08-28T14:05:54.299Z,4.53
2022-08-28T14:08:21.895Z,7.17
2022-08-28T14:10:48.988Z,4.73
2022-08-28T14:13:15.847Z,4.33
2022-08-28T14:15:42.729Z,4.93
2022-08-28T14:18:09.496Z,4.70
2022-08-28T14:20:38.657Z,6.50
2022-08-28T14:23:05.545Z,6.03
2022-08-28T14:25:37.110Z,5.20
2022-08-28T14:28:05.919Z,8.17
2022-08-28T14:30:32.728Z,11.63
2022-08-28T14:32:59.505Z,6.13
2022-08-28T14:35:26.674Z,9.97
2022-08-28T14:37:53.462Z,6.10
2022-08-28T14:40:20.634Z,5.50
2022-08-28T14:42:47.651Z,4.73
2022-08-28T14:45:14.535Z,7.70
2022-08-28T14:47:41.441Z,10.37
2022-08-28T14:50:08.749Z,5.33
2022-08-28T14:52:35.735Z,9.43
2022-08-28T14:55:02.570Z,4.90
2022-08-28T14:57:29.420Z,5.60
2022-08-28T14:59:56.212Z,6.03
2022-08-28T15:02:23.434Z,6.47
2022-08-28T15:04:50.222Z,6.10
2022-08-28T15:07:17.082Z,9.13
2022-08-28T15:09:43.850Z,10.83
2022-08-28T15:12:11.434Z,6.73
2022-08-28T15:14:38.397Z,6.57
2022-08-28T15:17:05.931Z,7.00
2022-08-28T15:19:33.234Z,8.80
2022-08-28T15:22:00.929Z,6.53
2022-08-28T15:24:31.396Z,9.13
2022-08-28T15:26:59.684Z,5.97
2022-08-28T15:29:28.237Z,6.27
2022-08-28T15:31:55.445Z,5.00
2022-08-28T15:34:28.133Z,7.10
2022-08-28T15:36:56.303Z,10.73
2022-08-28T15:39:45.945Z,5.20
2022-08-28T15:42:13.246Z,6.13
2022-08-28T15:44:40.111Z,6.13
2022-08-28T15:47:07.942Z,5.33
2022-08-28T15:49:38.848Z,7.90
2022-08-28T15:52:13.846Z,5.50
2022-08-28T15:54:41.517Z,5.93
2022-08-28T15:57:08.365Z,15.83
2022-08-28T15:59:48.914Z,10.07
2022-08-28T16:02:23.071Z,7.20
2022-08-28T16:04:50.563Z,5.00
2022-08-28T16:07:18.424Z,5.37
2022-08-28T16:09:45.311Z,5.80
2022-08-28T16:12:12.094Z,6.70
2022-08-28T16:14:38.960Z,14.17
2022-08-28T16:17:11.063Z,5.77
2022-08-28T16:19:39.930Z,11.20
2022-08-28T16:22:07.845Z,6.13
2022-08-28T16:24:35.071Z,8.93
2022-08-28T16:27:01.851Z,5.17
2022-08-28T16:29:28.652Z,8.30
2022-08-28T16:31:56.672Z,5.53
2022-08-28T16:34:27.063Z,5.17
2022-08-28T16:36:56.273Z,5.83
2022-08-28T16:39:23.062Z,7.17
2022-08-28T16:41:50.291Z,6.80
2022-08-28T16:44:22.147Z,6.53
2022-08-28T16:46:49.331Z,5.20
2022-08-28T16:49:16.372Z,5.47
2022-08-28T16:51:43.208Z,5.53
2022-08-28T16:54:10.100Z,6.27
2022-08-28T16:56:36.912Z,6.70
2022-08-28T16:59:04.603Z,7.00
2022-08-28T17:01:40.133Z,7.10
2022-08-28T17:04:09.800Z,9.23
2022-08-28T17:06:36.786Z,6.90
2022-08-28T17:09:04.165Z,5.53
2022-08-28T17:11:31.092Z,6.60
2022-08-28T17:13:58.986Z,7.33
2022-08-28T17:16:31.397Z,6.50
2022-08-28T17:18:59.285Z,6.53
2022-08-28T17:21:44.660Z,7.87
2022-08-28T17:24:14.841Z,4.63
2022-08-28T17:26:43.663Z,6.80
2022-08-28T17:29:10.955Z,5.43
2022-08-28T17:31:38.238Z,8.77
2022-08-28T17:34:07.235Z,5.47
2022-08-28T17:36:35.705Z,7.47
2022-08-28T17:39:05.837Z,9.03
2022-08-28T17:41:33.488Z,6.93
2022-08-28T17:44:01.379Z,9.13
2022-08-28T17:46:29.195Z,5.80
2022-08-28T17:48:57.660Z,5.77
2022-08-28T17:51:33.804Z,6.60
2022-08-28T17:54:18.594Z,6.20
2022-08-28T17:56:46.307Z,8.40
2022-08-28T17:59:14.179Z,5.90
2022-08-28T18:01:42.066Z,7.17
2022-08-28T18:04:09.202Z,5.50
2022-08-28T18:06:36.539Z,7.37
2022-08-28T18:09:04.456Z,12.70
2022-08-28T18:11:31.487Z,6.10
2022-08-28T18:13:59.731Z,7.87
2022-08-28T18:16:31.113Z,6.90
2022-08-28T18:18:59.741Z,7.57
2022-08-28T18:21:26.995Z,5.83
2022-08-28T18:23:53.999Z,5.80
2022-08-28T18:26:20.929Z,7.07
2022-08-28T18:28:48.251Z,7.30
2022-08-28T18:31:15.187Z,9.33
2022-08-28T18:33:42.068Z,6.70
2022-08-28T18:36:13.916Z,8.03
2022-08-28T18:38:41.855Z,9.00
2022-08-28T18:41:10.029Z,6.10
2022-08-28T18:43:37.108Z,7.20
2022-08-28T18:46:05.391Z,8.07
2022-08-28T18:48:32.375Z,14.57
2022-08-28T18:50:59.216Z,7.30
2022-08-28T18:53:26.537Z,8.30
2022-08-28T18:55:55.097Z,15.07
2022-08-28T18:58:23.249Z,10.03
2022-08-28T19:00:50.151Z,8.40
2022-08-28T19:03:17.430Z,11.23
2022-08-28T19:05:44.365Z,8.13
2022-08-28T19:08:11.448Z,8.50
2022-08-28T19:10:38.428Z,14.53
2022-08-28T19:13:06.628Z,10.27
2022-08-28T19:15:35.705Z,7.30
2022-08-28T19:18:04.167Z,7.77
2022-08-28T19:20:31.739Z,7.60
2022-08-28T19:22:59.212Z,8.67
2022-08-28T19:25:29.366Z,16.17
2022-08-28T19:28:01.512Z,7.83
2022-08-28T19:30:32.834Z,7.20
2022-08-28T19:33:01.559Z,7.83
2022-08-28T19:35:28.322Z,8.27
2022-08-28T19:37:55.369Z,8.53
2022-08-28T19:40:22.794Z,8.90
2022-08-28T19:42:50.090Z,9.50
2022-08-28T19:45:17.843Z,8.83
2022-08-28T19:47:45.379Z,7.83
2022-08-28T19:50:14.543Z,11.33
2022-08-28T19:52:43.221Z,9.00
2022-08-28T19:55:18.279Z,10.40
2022-08-28T19:57:46.823Z,7.80
2022-08-28T20:00:17.678Z,8.40
2022-08-28T20:02:45.445Z,9.50
2022-08-28T20:05:12.561Z,9.97
2022-08-28T20:07:39.480Z,12.13
2022-08-28T20:10:07.402Z,11.30
2022-08-28T20:12:34.619Z,9.60
2022-08-28T20:15:03.698Z,10.40
2022-08-28T20:17:30.766Z,8.07
2022-08-28T20:20:02.434Z,9.17
2022-08-28T20:22:29.771Z,8.77
2022-08-28T20:24:56.601Z,9.27
2022-08-28T20:27:23.700Z,12.17
2022-08-28T20:29:50.490Z,8.53
2022-08-28T20:32:17.348Z,12.70
2022-08-28T20:34:44.692Z,8.00
2022-08-28T20:37:11.558Z,9.20
2022-08-28T20:39:41.491Z,14.60
2022-08-28T20:42:09.747Z,7.80
2022-08-28T20:44:36.537Z,8.03
2022-08-28T20:47:03.992Z,9.60
2022-08-28T20:49:30.813Z,9.00
2022-08-28T20:51:58.795Z,9.77
2022-08-28T20:54:29.510Z,8.47
2022-08-28T20:56:58.375Z,8.13
2022-08-28T20:59:28.845Z,9.30
2022-08-28T21:02:26.433Z,10.00
2022-08-28T21:04:53.796Z,7.93
2022-08-28T21:07:22.650Z,9.13
2022-08-28T21:10:05.828Z,14.20
2022-08-28T21:12:36.488Z,8.73
2022-08-28T21:15:05.064Z,9.03
2022-08-28T21:17:32.075Z,11.07
2022-08-28T21:20:01.774Z,12.30
2022-08-28T21:22:31.515Z,9.73
2022-08-28T21:24:58.782Z,9.07
2022-08-28T21:27:25.630Z,8.03
2022-08-28T21:29:55.929Z,9.07
2022-08-28T21:32:22.821Z,9.50
2022-08-28T21:34:49.616Z,10.33
2022-08-28T21:37:16.390Z,8.40
2022-08-28T21:39:43.211Z,8.07
2022-08-28T21:42:10.408Z,6.60
2022-08-28T21:44:38.555Z,13.20
2022-08-28T21:47:05.961Z,13.80
2022-08-28T21:49:32.756Z,8.80
2022-08-28T21:52:03.076Z,8.13
2022-08-28T21:54:30.743Z,14.07
2022-08-28T21:56:58.913Z,8.87
2022-08-28T21:59:28.482Z,12.60
2022-08-28T22:02:01.277Z,10.13
2022-08-28T22:04:28.257Z,10.90
2022-08-28T22:06:55.016Z,10.13
2022-08-28T22:09:21.912Z,13.73
2022-08-28T22:11:48.683Z,14.20
2022-08-28T22:14:15.520Z,13.77
2022-08-28T22:16:42.634Z,12.00
2022-08-28T22:19:09.441Z,15.57
2022-08-28T22:21:55.042Z,12.23
2022-08-28T22:24:21.857Z,10.37
2022-08-28T22:26:48.650Z,9.30
2022-08-28T22:29:15.491Z,12.17
2022-08-28T22:31:45.641Z,9.37
2022-08-28T22:34:14.130Z,9.63
2022-08-28T22:36:40.949Z,10.53
2022-08-28T22:39:07.727Z,13.00
2022-08-28T22:41:37.479Z,10.13
2022-08-28T22:44:04.702Z,12.10
2022-08-28T22:46:31.450Z,12.13
2022-08-28T22:48:59.265Z,9.60
2022-08-28T22:51:26.088Z,8.60
2022-08-28T22:53:52.939Z,10.37
2022-08-28T22:56:19.920Z,13.43
2022-08-28T22:58:46.823Z,9.80
2022-08-28T23:01:17.634Z,11.30
2022-08-28T23:03:45.256Z,12.90
2022-08-28T23:06:13.729Z,9.93
2022-08-28T23:08:41.196Z,9.60
2022-08-28T23:11:08.939Z,10.07
2022-08-28T23:13:36.090Z,8.43
2022-08-28T23:16:03.272Z,8.43
2022-08-28T23:18:41.545Z,10.50
2022-08-28T23:21:19.381Z,9.70
2022-08-28T23:23:46.637Z,14.23
2022-08-28T23:26:15.072Z,9.57
2022-08-28T23:28:42.573Z,8.50
2022-08-28T23:31:10.093Z,8.63
2022-08-28T23:33:36.973Z,9.07
2022-08-28T23:36:04.370Z,10.10
2022-08-28T23:38:31.179Z,9.93
2022-08-28T23:40:58.593Z,11.50
2022-08-28T23:43:25.383Z,9.37
2022-08-28T23:45:52.780Z,11.63
2022-08-28T23:48:20.705Z,7.97
2022-08-28T23:50:47.823Z,12.67
2022-08-28T23:53:14.766Z,9.83
2022-08-28T23:55:44.236Z,14.23
2022-08-28T23:58:11.212Z,12.53
